sensor_id;sensor_type;location;lat;lon;timestamp;P1;durP1;ratioP1;P2;durP2;ratioP2
36839;SDS011;24406;51.640;9.566;2022-10-28T00:00:17;19.42;;;12.55;;
36839;SDS011;24406;51.640;9.566;2022-10-28T00:05:20;17.30;;;12.05;;
36839;SDS011;24406;51.640;9.566;2022-10-28T00:10:22;16.13;;;12.32;;
36839;SDS011;24406;51.640;9.566;2022-10-28T00:15:23;15.10;;;11.70;;
36839;SDS011;24406;51.640;9.566;2022-10-28T00:20:26;17.83;;;12.90;;
36839;SDS011;24406;51.640;9.566;2022-10-28T00:25:27;16.45;;;11.73;;
36839;SDS011;24406;51.640;9.566;2022-10-28T00:30:29;21.55;;;13.43;;
36839;SDS011;24406;51.640;9.566;2022-10-28T00:35:32;17.27;;;11.15;;
36839;SDS011;24406;51.640;9.566;2022-10-28T00:40:33;16.17;;;12.02;;
36839;SDS011;24406;51.640;9.566;2022-10-28T00:45:35;16.83;;;12.77;;
36839;SDS011;24406;51.640;9.566;2022-10-28T00:50:40;18.27;;;11.65;;
36839;SDS011;24406;51.640;9.566;2022-10-28T00:55:44;26.52;;;13.68;;
36839;SDS011;24406;51.640;9.566;2022-10-28T01:00:46;17.80;;;12.38;;
36839;SDS011;24406;51.640;9.566;2022-10-28T01:05:49;17.48;;;12.90;;
36839;SDS011;24406;51.640;9.566;2022-10-28T01:10:56;21.92;;;13.50;;
36839;SDS011;24406;51.640;9.566;2022-10-28T01:16:16;18.92;;;12.75;;
36839;SDS011;24406;51.640;9.566;2022-10-28T01:21:33;18.92;;;12.68;;
36839;SDS011;24406;51.640;9.566;2022-10-28T01:32:48;23.73;;;12.65;;
36839;SDS011;24406;51.640;9.566;2022-10-28T01:37:57;22.10;;;13.53;;
36839;SDS011;24406;51.640;9.566;2022-10-28T01:43:08;18.35;;;15.40;;
36839;SDS011;24406;51.640;9.566;2022-10-28T01:48:13;14.93;;;13.48;;
36839;SDS011;24406;51.640;9.566;2022-10-28T01:53:17;15.40;;;13.93;;
36839;SDS011;24406;51.640;9.566;2022-10-28T01:58:22;26.50;;;14.48;;
36839;SDS011;24406;51.640;9.566;2022-10-28T02:03:27;21.52;;;14.68;;
36839;SDS011;24406;51.640;9.566;2022-10-28T02:08:34;14.93;;;12.60;;
36839;SDS011;24406;51.640;9.566;2022-10-28T02:13:44;13.88;;;11.40;;
36839;SDS011;24406;51.640;9.566;2022-10-28T02:18:55;16.75;;;12.95;;
36839;SDS011;24406;51.640;9.566;2022-10-28T02:24:00;14.55;;;11.57;;
36839;SDS011;24406;51.640;9.566;2022-10-28T02:29:12;18.52;;;13.73;;
36839;SDS011;24406;51.640;9.566;2022-10-28T02:34:18;22.02;;;13.13;;
36839;SDS011;24406;51.640;9.566;2022-10-28T02:39:28;12.95;;;11.65;;
36839;SDS011;24406;51.640;9.566;2022-10-28T02:44:33;15.73;;;12.00;;
36839;SDS011;24406;51.640;9.566;2022-10-28T02:49:37;12.80;;;10.45;;
36839;SDS011;24406;51.640;9.566;2022-10-28T02:54:40;14.25;;;11.57;;
36839;SDS011;24406;51.640;9.566;2022-10-28T02:59:49;13.57;;;10.23;;
36839;SDS011;24406;51.640;9.566;2022-10-28T03:04:53;13.88;;;11.13;;
36839;SDS011;24406;51.640;9.566;2022-10-28T03:09:54;13.93;;;10.90;;
36839;SDS011;24406;51.640;9.566;2022-10-28T03:14:56;17.30;;;10.65;;
36839;SDS011;24406;51.640;9.566;2022-10-28T03:19:59;17.90;;;9.77;;
36839;SDS011;24406;51.640;9.566;2022-10-28T03:25:00;14.65;;;8.80;;
36839;SDS011;24406;51.640;9.566;2022-10-28T03:30:02;11.07;;;9.45;;
36839;SDS011;24406;51.640;9.566;2022-10-28T03:35:06;17.25;;;9.48;;
36839;SDS011;24406;51.640;9.566;2022-10-28T03:40:08;15.85;;;10.38;;
36839;SDS011;24406;51.640;9.566;2022-10-28T03:45:10;14.77;;;10.85;;
36839;SDS011;24406;51.640;9.566;2022-10-28T03:50:16;14.90;;;9.73;;
36839;SDS011;24406;51.640;9.566;2022-10-28T03:55:18;15.82;;;9.80;;
36839;SDS011;24406;51.640;9.566;2022-10-28T04:00:19;21.17;;;9.13;;
36839;SDS011;24406;51.640;9.566;2022-10-28T04:05:22;13.13;;;9.88;;
36839;SDS011;24406;51.640;9.566;2022-10-28T04:10:24;12.93;;;9.95;;
36839;SDS011;24406;51.640;9.566;2022-10-28T04:15:25;20.05;;;12.25;;
36839;SDS011;24406;51.640;9.566;2022-10-28T04:20:28;15.45;;;11.07;;
36839;SDS011;24406;51.640;9.566;2022-10-28T04:25:30;13.88;;;11.23;;
36839;SDS011;24406;51.640;9.566;2022-10-28T04:30:32;13.20;;;11.82;;
36839;SDS011;24406;51.640;9.566;2022-10-28T04:35:35;17.80;;;11.13;;
36839;SDS011;24406;51.640;9.566;2022-10-28T04:40:38;19.45;;;11.43;;
36839;SDS011;24406;51.640;9.566;2022-10-28T04:45:39;14.80;;;12.18;;
36839;SDS011;24406;51.640;9.566;2022-10-28T04:50:42;21.20;;;11.80;;
36839;SDS011;24406;51.640;9.566;2022-10-28T04:55:44;21.45;;;12.15;;
36839;SDS011;24406;51.640;9.566;2022-10-28T05:00:46;16.00;;;10.75;;
36839;SDS011;24406;51.640;9.566;2022-10-28T05:05:49;14.70;;;10.75;;
36839;SDS011;24406;51.640;9.566;2022-10-28T05:10:50;16.60;;;10.70;;
36839;SDS011;24406;51.640;9.566;2022-10-28T05:15:52;15.95;;;11.35;;
36839;SDS011;24406;51.640;9.566;2022-10-28T05:20:55;15.63;;;9.48;;
36839;SDS011;24406;51.640;9.566;2022-10-28T05:25:56;23.65;;;11.35;;
36839;SDS011;24406;51.640;9.566;2022-10-28T05:30:58;22.33;;;11.70;;
36839;SDS011;24406;51.640;9.566;2022-10-28T05:36:01;13.90;;;10.40;;
36839;SDS011;24406;51.640;9.566;2022-10-28T05:41:02;14.63;;;10.10;;
36839;SDS011;24406;51.640;9.566;2022-10-28T05:46:04;34.90;;;25.80;;
36839;SDS011;24406;51.640;9.566;2022-10-28T05:51:07;23.30;;;13.55;;
36839;SDS011;24406;51.640;9.566;2022-10-28T05:56:09;15.05;;;12.15;;
36839;SDS011;24406;51.640;9.566;2022-10-28T06:01:10;22.40;;;16.95;;
36839;SDS011;24406;51.640;9.566;2022-10-28T06:06:13;25.73;;;21.42;;
36839;SDS011;24406;51.640;9.566;2022-10-28T06:11:15;24.98;;;19.27;;
36839;SDS011;24406;51.640;9.566;2022-10-28T06:16:16;22.60;;;17.50;;
36839;SDS011;24406;51.640;9.566;2022-10-28T06:21:19;29.88;;;24.45;;
36839;SDS011;24406;51.640;9.566;2022-10-28T06:26:20;22.88;;;17.25;;
36839;SDS011;24406;51.640;9.566;2022-10-28T06:31:22;28.45;;;12.82;;
36839;SDS011;24406;51.640;9.566;2022-10-28T06:36:25;20.55;;;16.73;;
36839;SDS011;24406;51.640;9.566;2022-10-28T06:41:26;24.60;;;19.48;;
36839;SDS011;24406;51.640;9.566;2022-10-28T06:46:28;23.17;;;19.48;;
36839;SDS011;24406;51.640;9.566;2022-10-28T06:51:31;20.88;;;18.75;;
36839;SDS011;24406;51.640;9.566;2022-10-28T06:56:32;22.27;;;19.95;;
36839;SDS011;24406;51.640;9.566;2022-10-28T07:01:34;28.35;;;20.83;;
36839;SDS011;24406;51.640;9.566;2022-10-28T07:06:37;24.67;;;18.73;;
36839;SDS011;24406;51.640;9.566;2022-10-28T07:11:38;24.23;;;18.77;;
36839;SDS011;24406;51.640;9.566;2022-10-28T07:16:40;28.52;;;19.30;;
36839;SDS011;24406;51.640;9.566;2022-10-28T07:21:43;25.65;;;18.55;;
36839;SDS011;24406;51.640;9.566;2022-10-28T07:26:46;27.40;;;19.42;;
36839;SDS011;24406;51.640;9.566;2022-10-28T07:31:47;32.47;;;20.90;;
36839;SDS011;24406;51.640;9.566;2022-10-28T07:36:51;24.25;;;20.60;;
36839;SDS011;24406;51.640;9.566;2022-10-28T07:41:53;29.05;;;21.27;;
36839;SDS011;24406;51.640;9.566;2022-10-28T07:46:54;25.52;;;20.92;;
36839;SDS011;24406;51.640;9.566;2022-10-28T07:51:57;29.55;;;20.20;;
36839;SDS011;24406;51.640;9.566;2022-10-28T07:56:58;28.30;;;17.58;;
36839;SDS011;24406;51.640;9.566;2022-10-28T08:02:00;24.88;;;17.77;;
36839;SDS011;24406;51.640;9.566;2022-10-28T08:07:03;24.63;;;14.85;;
36839;SDS011;24406;51.640;9.566;2022-10-28T08:12:04;18.73;;;13.82;;
36839;SDS011;24406;51.640;9.566;2022-10-28T08:17:06;23.52;;;13.80;;
36839;SDS011;24406;51.640;9.566;2022-10-28T08:22:09;50.85;;;19.05;;
36839;SDS011;24406;51.640;9.566;2022-10-28T08:27:11;37.92;;;22.50;;
36839;SDS011;24406;51.640;9.566;2022-10-28T08:32:12;27.00;;;18.77;;
36839;SDS011;24406;51.640;9.566;2022-10-28T08:37:16;34.65;;;19.98;;
36839;SDS011;24406;51.640;9.566;2022-10-28T08:42:20;24.30;;;16.20;;
36839;SDS011;24406;51.640;9.566;2022-10-28T08:47:32;15.18;;;10.13;;
36839;SDS011;24406;51.640;9.566;2022-10-28T08:52:40;13.55;;;8.80;;
36839;SDS011;24406;51.640;9.566;2022-10-28T08:57:45;14.75;;;8.90;;
36839;SDS011;24406;51.640;9.566;2022-10-28T09:02:51;12.02;;;7.40;;
36839;SDS011;24406;51.640;9.566;2022-10-28T09:07:59;13.70;;;7.28;;
36839;SDS011;24406;51.640;9.566;2022-10-28T09:13:03;12.15;;;7.95;;
36839;SDS011;24406;51.640;9.566;2022-10-28T09:18:10;17.60;;;7.40;;
36839;SDS011;24406;51.640;9.566;2022-10-28T09:23:17;11.27;;;6.50;;
36839;SDS011;24406;51.640;9.566;2022-10-28T09:28:25;18.48;;;6.55;;
36839;SDS011;24406;51.640;9.566;2022-10-28T09:33:44;16.20;;;6.05;;
36839;SDS011;24406;51.640;9.566;2022-10-28T09:38:52;12.75;;;6.05;;
36839;SDS011;24406;51.640;9.566;2022-10-28T09:43:55;11.48;;;5.45;;
36839;SDS011;24406;51.640;9.566;2022-10-28T09:49:02;13.43;;;5.82;;
36839;SDS011;24406;51.640;9.566;2022-10-28T09:54:07;13.60;;;5.97;;
36839;SDS011;24406;51.640;9.566;2022-10-28T09:59:10;13.45;;;6.07;;
36839;SDS011;24406;51.640;9.566;2022-10-28T10:04:17;12.57;;;6.65;;
36839;SDS011;24406;51.640;9.566;2022-10-28T10:09:22;11.85;;;5.60;;
36839;SDS011;24406;51.640;9.566;2022-10-28T10:14:27;13.13;;;5.35;;
36839;SDS011;24406;51.640;9.566;2022-10-28T10:24:58;10.05;;;4.13;;
36839;SDS011;24406;51.640;9.566;2022-10-28T10:30:00;11.50;;;3.95;;
36839;SDS011;24406;51.640;9.566;2022-10-28T10:35:03;9.27;;;3.70;;
36839;SDS011;24406;51.640;9.566;2022-10-28T10:40:17;8.52;;;3.47;;
36839;SDS011;24406;51.640;9.566;2022-10-28T10:45:22;11.43;;;3.78;;
36839;SDS011;24406;51.640;9.566;2022-10-28T10:50:26;13.07;;;3.80;;
36839;SDS011;24406;51.640;9.566;2022-10-28T10:55:33;11.32;;;3.75;;
36839;SDS011;24406;51.640;9.566;2022-10-28T11:00:36;14.30;;;4.75;;
36839;SDS011;24406;51.640;9.566;2022-10-28T11:05:38;14.43;;;4.13;;
36839;SDS011;24406;51.640;9.566;2022-10-28T11:11:02;10.30;;;4.10;;
36839;SDS011;24406;51.640;9.566;2022-10-28T11:16:06;16.77;;;4.72;;
36839;SDS011;24406;51.640;9.566;2022-10-28T11:21:37;9.63;;;3.72;;
36839;SDS011;24406;51.640;9.566;2022-10-28T11:26:47;17.77;;;4.32;;
36839;SDS011;24406;51.640;9.566;2022-10-28T11:32:07;11.70;;;4.00;;
36839;SDS011;24406;51.640;9.566;2022-10-28T11:37:17;9.90;;;3.47;;
36839;SDS011;24406;51.640;9.566;2022-10-28T11:42:29;13.57;;;4.30;;
36839;SDS011;24406;51.640;9.566;2022-10-28T11:47:38;17.35;;;4.47;;
36839;SDS011;24406;51.640;9.566;2022-10-28T11:52:48;15.13;;;3.95;;
36839;SDS011;24406;51.640;9.566;2022-10-28T11:58:02;13.32;;;4.68;;
36839;SDS011;24406;51.640;9.566;2022-10-28T12:03:17;16.02;;;3.85;;
36839;SDS011;24406;51.640;9.566;2022-10-28T12:08:37;18.88;;;4.05;;
36839;SDS011;24406;51.640;9.566;2022-10-28T12:13:50;7.90;;;3.60;;
36839;SDS011;24406;51.640;9.566;2022-10-28T12:18:58;14.27;;;3.63;;
36839;SDS011;24406;51.640;9.566;2022-10-28T12:24:00;9.55;;;3.50;;
36839;SDS011;24406;51.640;9.566;2022-10-28T12:29:06;11.77;;;3.70;;
36839;SDS011;24406;51.640;9.566;2022-10-28T12:34:10;14.23;;;3.95;;
36839;SDS011;24406;51.640;9.566;2022-10-28T12:39:14;12.45;;;3.75;;
36839;SDS011;24406;51.640;9.566;2022-10-28T12:44:19;14.18;;;4.15;;
36839;SDS011;24406;51.640;9.566;2022-10-28T12:49:22;14.73;;;3.50;;
36839;SDS011;24406;51.640;9.566;2022-10-28T12:54:32;13.05;;;3.92;;
36839;SDS011;24406;51.640;9.566;2022-10-28T12:59:40;12.65;;;4.00;;
36839;SDS011;24406;51.640;9.566;2022-10-28T13:04:44;16.15;;;4.35;;
36839;SDS011;24406;51.640;9.566;2022-10-28T13:09:49;9.95;;;3.45;;
36839;SDS011;24406;51.640;9.566;2022-10-28T13:15:01;14.13;;;3.60;;
36839;SDS011;24406;51.640;9.566;2022-10-28T13:20:11;10.95;;;3.45;;
36839;SDS011;24406;51.640;9.566;2022-10-28T13:25:26;12.38;;;3.80;;
36839;SDS011;24406;51.640;9.566;2022-10-28T13:30:35;15.45;;;4.30;;
36839;SDS011;24406;51.640;9.566;2022-10-28T13:35:36;17.90;;;4.55;;
36839;SDS011;24406;51.640;9.566;2022-10-28T13:46:10;18.42;;;3.92;;
36839;SDS011;24406;51.640;9.566;2022-10-28T13:51:30;13.40;;;3.75;;
36839;SDS011;24406;51.640;9.566;2022-10-28T13:56:38;18.25;;;3.92;;
36839;SDS011;24406;51.640;9.566;2022-10-28T14:07:25;16.38;;;4.57;;
36839;SDS011;24406;51.640;9.566;2022-10-28T14:12:29;13.80;;;3.72;;
36839;SDS011;24406;51.640;9.566;2022-10-28T14:17:37;8.70;;;3.50;;
36839;SDS011;24406;51.640;9.566;2022-10-28T14:22:39;20.77;;;4.10;;
36839;SDS011;24406;51.640;9.566;2022-10-28T14:27:41;13.88;;;4.25;;
36839;SDS011;24406;51.640;9.566;2022-10-28T14:32:49;10.30;;;3.60;;
36839;SDS011;24406;51.640;9.566;2022-10-28T14:38:16;20.35;;;3.45;;
36839;SDS011;24406;51.640;9.566;2022-10-28T14:43:30;10.68;;;3.30;;
36839;SDS011;24406;51.640;9.566;2022-10-28T14:48:44;20.15;;;4.28;;
36839;SDS011;24406;51.640;9.566;2022-10-28T14:53:48;14.25;;;3.90;;
36839;SDS011;24406;51.640;9.566;2022-10-28T14:58:52;18.67;;;4.93;;
36839;SDS011;24406;51.640;9.566;2022-10-28T15:03:59;12.18;;;3.90;;
36839;SDS011;24406;51.640;9.566;2022-10-28T15:14:22;18.13;;;3.95;;
36839;SDS011;24406;51.640;9.566;2022-10-28T15:19:27;14.60;;;4.43;;
36839;SDS011;24406;51.640;9.566;2022-10-28T15:24:33;21.02;;;4.47;;
36839;SDS011;24406;51.640;9.566;2022-10-28T15:29:34;14.02;;;4.20;;
36839;SDS011;24406;51.640;9.566;2022-10-28T15:34:37;13.60;;;4.75;;
36839;SDS011;24406;51.640;9.566;2022-10-28T15:39:39;13.85;;;3.63;;
36839;SDS011;24406;51.640;9.566;2022-10-28T15:44:40;17.75;;;4.70;;
36839;SDS011;24406;51.640;9.566;2022-10-28T15:49:43;12.32;;;4.00;;
36839;SDS011;24406;51.640;9.566;2022-10-28T15:54:58;16.55;;;5.60;;
36839;SDS011;24406;51.640;9.566;2022-10-28T16:00:16;15.65;;;4.38;;
36839;SDS011;24406;51.640;9.566;2022-10-28T16:10:41;23.13;;;5.40;;
36839;SDS011;24406;51.640;9.566;2022-10-28T16:15:44;20.70;;;6.03;;
36839;SDS011;24406;51.640;9.566;2022-10-28T16:20:49;18.80;;;5.82;;
36839;SDS011;24406;51.640;9.566;2022-10-28T16:25:52;20.77;;;6.28;;
36839;SDS011;24406;51.640;9.566;2022-10-28T16:30:54;21.17;;;6.00;;
36839;SDS011;24406;51.640;9.566;2022-10-28T16:35:56;19.45;;;5.07;;
36839;SDS011;24406;51.640;9.566;2022-10-28T16:41:00;23.17;;;4.97;;
36839;SDS011;24406;51.640;9.566;2022-10-28T16:46:01;22.48;;;4.75;;
36839;SDS011;24406;51.640;9.566;2022-10-28T16:51:04;19.30;;;5.20;;
36839;SDS011;24406;51.640;9.566;2022-10-28T16:56:08;18.13;;;6.05;;
36839;SDS011;24406;51.640;9.566;2022-10-28T17:01:09;21.08;;;7.25;;
36839;SDS011;24406;51.640;9.566;2022-10-28T17:06:11;19.83;;;6.70;;
36839;SDS011;24406;51.640;9.566;2022-10-28T17:11:14;18.15;;;6.10;;
36839;SDS011;24406;51.640;9.566;2022-10-28T17:16:15;26.42;;;6.03;;
36839;SDS011;24406;51.640;9.566;2022-10-28T17:21:17;15.27;;;5.07;;
36839;SDS011;24406;51.640;9.566;2022-10-28T17:26:20;17.52;;;4.75;;
36839;SDS011;24406;51.640;9.566;2022-10-28T17:31:21;20.35;;;5.70;;
36839;SDS011;24406;51.640;9.566;2022-10-28T17:36:23;22.10;;;5.95;;
36839;SDS011;24406;51.640;9.566;2022-10-28T17:41:25;17.95;;;7.80;;
36839;SDS011;24406;51.640;9.566;2022-10-28T17:46:27;21.83;;;8.13;;
36839;SDS011;24406;51.640;9.566;2022-10-28T17:51:29;17.17;;;7.18;;
36839;SDS011;24406;51.640;9.566;2022-10-28T17:56:31;19.45;;;7.22;;
36839;SDS011;24406;51.640;9.566;2022-10-28T18:01:33;19.00;;;6.88;;
36839;SDS011;24406;51.640;9.566;2022-10-28T18:06:35;26.58;;;6.30;;
36839;SDS011;24406;51.640;9.566;2022-10-28T18:11:38;19.13;;;5.72;;
36839;SDS011;24406;51.640;9.566;2022-10-28T18:16:40;15.70;;;5.28;;
36839;SDS011;24406;51.640;9.566;2022-10-28T18:21:41;16.05;;;5.80;;
36839;SDS011;24406;51.640;9.566;2022-10-28T18:26:45;21.85;;;6.30;;
36839;SDS011;24406;51.640;9.566;2022-10-28T18:31:46;12.25;;;6.78;;
36839;SDS011;24406;51.640;9.566;2022-10-28T18:36:48;13.68;;;7.15;;
36839;SDS011;24406;51.640;9.566;2022-10-28T18:41:51;30.73;;;12.20;;
36839;SDS011;24406;51.640;9.566;2022-10-28T18:46:53;33.53;;;16.77;;
36839;SDS011;24406;51.640;9.566;2022-10-28T18:51:54;32.22;;;14.77;;
36839;SDS011;24406;51.640;9.566;2022-10-28T18:56:57;23.80;;;12.65;;
36839;SDS011;24406;51.640;9.566;2022-10-28T19:01:58;31.85;;;11.98;;
36839;SDS011;24406;51.640;9.566;2022-10-28T19:07:00;22.13;;;10.88;;
36839;SDS011;24406;51.640;9.566;2022-10-28T19:12:03;20.05;;;10.05;;
36839;SDS011;24406;51.640;9.566;2022-10-28T19:17:06;19.33;;;9.38;;
36839;SDS011;24406;51.640;9.566;2022-10-28T19:22:08;20.60;;;8.93;;
36839;SDS011;24406;51.640;9.566;2022-10-28T19:27:10;24.27;;;9.75;;
36839;SDS011;24406;51.640;9.566;2022-10-28T19:32:12;27.60;;;8.63;;
36839;SDS011;24406;51.640;9.566;2022-10-28T19:37:14;20.67;;;10.55;;
36839;SDS011;24406;51.640;9.566;2022-10-28T19:42:16;26.00;;;11.80;;
36839;SDS011;24406;51.640;9.566;2022-10-28T19:47:18;20.67;;;10.05;;
36839;SDS011;24406;51.640;9.566;2022-10-28T19:52:19;22.85;;;8.68;;
36839;SDS011;24406;51.640;9.566;2022-10-28T19:57:22;22.55;;;9.05;;
36839;SDS011;24406;51.640;9.566;2022-10-28T20:02:24;16.88;;;8.30;;
36839;SDS011;24406;51.640;9.566;2022-10-28T20:07:25;13.15;;;7.30;;
36839;SDS011;24406;51.640;9.566;2022-10-28T20:12:28;24.13;;;8.45;;
36839;SDS011;24406;51.640;9.566;2022-10-28T20:17:30;18.63;;;10.32;;
36839;SDS011;24406;51.640;9.566;2022-10-28T20:22:31;19.23;;;8.50;;
36839;SDS011;24406;51.640;9.566;2022-10-28T20:27:34;21.27;;;8.60;;
36839;SDS011;24406;51.640;9.566;2022-10-28T20:32:35;19.70;;;8.13;;
36839;SDS011;24406;51.640;9.566;2022-10-28T20:37:37;17.75;;;7.85;;
36839;SDS011;24406;51.640;9.566;2022-10-28T20:42:40;20.90;;;7.63;;
36839;SDS011;24406;51.640;9.566;2022-10-28T20:47:41;28.10;;;7.65;;
36839;SDS011;24406;51.640;9.566;2022-10-28T20:52:43;20.85;;;7.82;;
36839;SDS011;24406;51.640;9.566;2022-10-28T20:57:45;15.13;;;6.93;;
36839;SDS011;24406;51.640;9.566;2022-10-28T21:02:47;17.25;;;7.43;;
36839;SDS011;24406;51.640;9.566;2022-10-28T21:07:48;29.02;;;8.98;;
36839;SDS011;24406;51.640;9.566;2022-10-28T21:12:51;15.85;;;7.15;;
36839;SDS011;24406;51.640;9.566;2022-10-28T21:17:53;27.25;;;8.00;;
36839;SDS011;24406;51.640;9.566;2022-10-28T21:22:54;15.75;;;7.45;;
36839;SDS011;24406;51.640;9.566;2022-10-28T21:27:57;18.48;;;8.15;;
36839;SDS011;24406;51.640;9.566;2022-10-28T21:33:00;28.85;;;9.25;;
36839;SDS011;24406;51.640;9.566;2022-10-28T21:38:02;14.90;;;9.70;;
36839;SDS011;24406;51.640;9.566;2022-10-28T21:43:05;13.50;;;8.88;;
36839;SDS011;24406;51.640;9.566;2022-10-28T21:48:08;12.80;;;8.02;;
36839;SDS011;24406;51.640;9.566;2022-10-28T21:53:09;19.90;;;8.20;;
36839;SDS011;24406;51.640;9.566;2022-10-28T21:58:12;22.10;;;8.15;;
36839;SDS011;24406;51.640;9.566;2022-10-28T22:03:14;17.27;;;7.93;;
36839;SDS011;24406;51.640;9.566;2022-10-28T22:08:15;15.35;;;7.03;;
36839;SDS011;24406;51.640;9.566;2022-10-28T22:13:18;20.85;;;7.15;;
36839;SDS011;24406;51.640;9.566;2022-10-28T22:18:20;23.65;;;8.88;;
36839;SDS011;24406;51.640;9.566;2022-10-28T22:23:21;20.83;;;8.63;;
36839;SDS011;24406;51.640;9.566;2022-10-28T22:28:24;18.88;;;8.73;;
36839;SDS011;24406;51.640;9.566;2022-10-28T22:33:26;24.60;;;8.68;;
36839;SDS011;24406;51.640;9.566;2022-10-28T22:38:28;22.33;;;8.63;;
36839;SDS011;24406;51.640;9.566;2022-10-28T22:43:31;16.20;;;8.38;;
36839;SDS011;24406;51.640;9.566;2022-10-28T22:48:33;22.10;;;8.13;;
36839;SDS011;24406;51.640;9.566;2022-10-28T22:53:34;13.60;;;7.40;;
36839;SDS011;24406;51.640;9.566;2022-10-28T22:58:38;18.95;;;9.63;;
36839;SDS011;24406;51.640;9.566;2022-10-28T23:03:40;19.65;;;9.10;;
36839;SDS011;24406;51.640;9.566;2022-10-28T23:08:42;15.60;;;9.07;;
36839;SDS011;24406;51.640;9.566;2022-10-28T23:13:46;16.30;;;8.82;;
36839;SDS011;24406;51.640;9.566;2022-10-28T23:18:50;18.77;;;8.80;;
36839;SDS011;24406;51.640;9.566;2022-10-28T23:23:53;17.00;;;8.98;;
36839;SDS011;24406;51.640;9.566;2022-10-28T23:28:57;24.20;;;9.90;;
36839;SDS011;24406;51.640;9.566;2022-10-28T23:33:59;21.38;;;10.18;;
36839;SDS011;24406;51.640;9.566;2022-10-28T23:39:01;20.13;;;9.70;;
36839;SDS011;24406;51.640;9.566;2022-10-28T23:44:04;19.67;;;9.32;;
36839;SDS011;24406;51.640;9.566;2022-10-28T23:49:05;25.00;;;9.32;;
36839;SDS011;24406;51.640;9.566;2022-10-28T23:54:07;14.45;;;8.77;;
36839;SDS011;24406;51.640;9.566;2022-10-28T23:59:09;17.77;;;8.20;;
